Página principal
METAR-TAF:

METAR-TAF

Aeroportos :

Aeroporto de Auckland

Auckland, Nova Zelândia

latitude: 37-01S, longitude: 174-48E, altura: 7 m

Observação actual do tempo

O boletim foi feito há 31 minutos, às 02:00 UTC
Vento 5 kt de sudoeste
Temperatura 19°C
Humidade 49%
Pressão 1032 hPa
Visibilidade 10 km ou mais

METAR: NZAA 190200Z AUTO 23005KT 9999 NCD 19/08 Q1032 NOSIG

Hora: 14:31 (02:31 UTC)

Previsão

O boletim foi feito há 3 horas e 27 minutos, às 23:04 UTC
Previsão válida de 19 às 00 UTC a 20 às 00 UTC
Vento 10 kt de su-sudoeste
Visibilidade 10 km ou mais
Poucas nuvensa uma altura de 3500 ft
Tornando-se
de 19 às 06 UTC a 19 às 08 UTC
Vento 5 kt de es-sudeste

TAF: NZAA 182304Z 1900/2000 20010KT 9999 FEW035 BECMG 1906/1908 12005KT

Observações e previsões do tempo de mais de 4000 aeroportos (mensagens METAR e TAF).

As estações disponíveis são os pontos amarelos e vermelhos sobre o mapa.

Mova o rato sobre o mapa para ver o nome da estação.

Depois clique no ponto para visualizar as observações e previsões meteorológicas.

Para alterar o mapa : clique nos botões verdes com uma cruz preta para aumentar o zoom; no botão verde com uma pitada de zoom; ou nas setas verdes para mapas adjacentes.


METAR-TAF: